createdAt,value
2023-03-20T00:01:24.093Z,35.20
2023-03-20T00:03:51.391Z,33.72
2023-03-20T00:06:23.469Z,37.83
2023-03-20T00:08:52.551Z,34.13
2023-03-20T00:11:34.702Z,37.53
2023-03-20T00:14:04.053Z,36.53
2023-03-20T00:16:34.343Z,34.90
2023-03-20T00:19:00.965Z,35.85
2023-03-20T00:21:27.458Z,35.05
2023-03-20T00:23:55.394Z,33.95
2023-03-20T00:26:26.818Z,39.25
2023-03-20T00:31:31.986Z,39.40
2023-03-20T00:34:02.042Z,32.97
2023-03-20T00:36:28.542Z,33.72
2023-03-20T00:38:56.334Z,42.42
2023-03-20T00:41:31.180Z,33.88
2023-03-20T00:44:02.334Z,36.75
2023-03-20T00:46:35.398Z,33.75
2023-03-20T00:49:01.900Z,30.75
2023-03-20T00:51:28.304Z,32.50
2023-03-20T00:53:54.778Z,37.47
2023-03-20T00:56:35.188Z,35.40
2023-03-20T00:59:03.335Z,35.28
2023-03-20T01:01:31.917Z,33.28
2023-03-20T01:03:59.892Z,35.85
2023-03-20T01:06:26.482Z,36.10
2023-03-20T01:08:52.882Z,32.47
2023-03-20T01:11:23.429Z,36.95
2023-03-20T01:13:52.188Z,35.37
2023-03-20T01:16:23.991Z,37.95
2023-03-20T01:18:51.575Z,37.60
2023-03-20T01:21:20.098Z,36.38
2023-03-20T01:23:47.951Z,31.20
2023-03-20T01:26:22.597Z,32.92
2023-03-20T01:28:50.646Z,36.85
2023-03-20T01:31:18.286Z,35.55
2023-03-20T01:33:45.622Z,36.72
2023-03-20T01:36:15.258Z,42.65
2023-03-20T01:38:42.235Z,36.92
2023-03-20T01:41:08.672Z,43.05
2023-03-20T01:43:36.028Z,35.00
2023-03-20T01:46:11.883Z,34.47
2023-03-20T01:48:50.190Z,35.65
2023-03-20T01:51:25.973Z,32.78
2023-03-20T01:54:12.896Z,37.30
2023-03-20T01:56:46.710Z,38.13
2023-03-20T01:59:28.855Z,38.28
2023-03-20T02:01:56.337Z,37.35
2023-03-20T02:04:29.001Z,48.67
2023-03-20T02:06:56.086Z,39.35
2023-03-20T02:09:22.622Z,45.00
2023-03-20T02:11:49.266Z,43.50
2023-03-20T02:14:15.963Z,38.72
2023-03-20T02:16:42.392Z,39.42
2023-03-20T02:19:21.667Z,37.95
2023-03-20T02:22:25.528Z,39.55
2023-03-20T02:25:15.769Z,38.85
2023-03-20T02:28:20.193Z,41.03
2023-03-20T02:31:14.508Z,42.45
2023-03-20T02:33:51.447Z,37.97
2023-03-20T02:36:54.855Z,39.33
2023-03-20T02:39:58.208Z,38.33
2023-03-20T02:42:44.781Z,36.08
2023-03-20T02:45:18.809Z,38.78
2023-03-20T02:48:08.378Z,39.50
2023-03-20T02:50:53.855Z,34.28
2023-03-20T02:53:41.877Z,37.75
2023-03-20T02:56:22.120Z,38.00
2023-03-20T02:59:03.936Z,43.58
2023-03-20T03:01:36.003Z,38.55
2023-03-20T03:04:08.794Z,34.95
2023-03-20T03:06:42.394Z,40.50
2023-03-20T03:09:22.055Z,40.47
2023-03-20T03:11:53.446Z,35.58
2023-03-20T03:16:54.344Z,38.38
2023-03-20T03:19:24.956Z,33.45
2023-03-20T03:21:51.967Z,51.25
2023-03-20T03:24:40.941Z,37.92
2023-03-20T03:27:18.117Z,41.17
2023-03-20T03:29:49.463Z,35.63
2023-03-20T03:32:25.373Z,34.28
2023-03-20T03:34:52.056Z,29.90
2023-03-20T03:37:41.354Z,33.67
2023-03-20T03:40:08.865Z,34.85
2023-03-20T03:42:39.866Z,34.28
2023-03-20T03:45:13.875Z,36.67
2023-03-20T03:47:52.532Z,34.90
2023-03-20T03:50:27.368Z,36.85
2023-03-20T03:52:59.610Z,34.28
2023-03-20T03:55:35.110Z,33.45
2023-03-20T03:58:08.753Z,39.83
2023-03-20T04:00:35.966Z,37.92
2023-03-20T04:03:06.138Z,33.00
2023-03-20T04:05:36.790Z,35.67
2023-03-20T04:08:05.680Z,36.03
2023-03-20T04:10:32.084Z,36.75
2023-03-20T04:12:58.605Z,35.10
2023-03-20T04:15:27.526Z,33.97
2023-03-20T04:17:54.326Z,34.67
2023-03-20T04:20:20.813Z,36.72
2023-03-20T04:22:47.422Z,35.92
2023-03-20T04:25:20.460Z,40.55
2023-03-20T04:27:47.296Z,36.55
2023-03-20T04:30:13.826Z,39.13
2023-03-20T04:32:40.391Z,40.47
2023-03-20T04:35:07.412Z,36.90
2023-03-20T04:37:34.062Z,39.22
2023-03-20T04:40:00.654Z,38.80
2023-03-20T04:42:27.149Z,43.15
2023-03-20T04:44:53.653Z,37.88
2023-03-20T04:47:20.384Z,43.90
2023-03-20T04:49:46.815Z,40.45
2023-03-20T04:52:13.389Z,48.67
2023-03-20T04:54:39.793Z,54.15
2023-03-20T04:57:06.392Z,42.30
2023-03-20T04:59:32.803Z,49.22
2023-03-20T05:01:59.261Z,47.50
2023-03-20T05:04:26.283Z,38.45
2023-03-20T05:06:53.424Z,37.50
2023-03-20T05:09:20.033Z,44.03
2023-03-20T05:11:46.516Z,54.95
2023-03-20T05:14:13.400Z,42.08
2023-03-20T05:16:40.579Z,40.00
2023-03-20T05:19:07.282Z,44.00
2023-03-20T05:21:33.717Z,32.35
2023-03-20T05:24:00.416Z,38.42
2023-03-20T05:26:27.218Z,34.25
2023-03-20T05:28:53.970Z,36.45
2023-03-20T05:31:20.691Z,35.90
2023-03-20T05:33:47.869Z,33.97
2023-03-20T05:36:14.604Z,38.97
2023-03-20T05:38:41.530Z,37.47
2023-03-20T05:41:08.204Z,33.47
2023-03-20T05:43:35.335Z,38.55
2023-03-20T05:46:02.174Z,35.70
2023-03-20T05:48:28.778Z,34.90
2023-03-20T05:50:55.291Z,35.08
2023-03-20T05:53:21.903Z,36.50
2023-03-20T05:55:49.038Z,44.08
2023-03-20T05:58:15.542Z,49.35
2023-03-20T06:00:41.994Z,49.47
2023-03-20T06:03:08.795Z,49.53
2023-03-20T06:05:36.599Z,60.25
2023-03-20T06:08:03.746Z,63.60
2023-03-20T06:10:30.357Z,63.22
2023-03-20T06:12:58.570Z,72.88
2023-03-20T06:15:25.348Z,72.40
2023-03-20T06:17:51.815Z,77.55
2023-03-20T06:20:18.502Z,82.38
2023-03-20T06:22:46.229Z,89.70
2023-03-20T06:25:13.120Z,95.85
2023-03-20T06:27:39.789Z,94.70
2023-03-20T06:30:07.857Z,78.35
2023-03-20T06:32:34.752Z,82.38
2023-03-20T06:35:01.650Z,92.78
2023-03-20T06:37:28.584Z,158.90
2023-03-20T06:39:55.934Z,113.32
2023-03-20T06:42:22.455Z,114.35
2023-03-20T06:44:49.431Z,118.13
2023-03-20T06:47:16.372Z,122.28
2023-03-20T06:49:45.895Z,82.95
2023-03-20T06:52:17.938Z,92.22
2023-03-20T06:54:46.061Z,99.18
2023-03-20T06:57:15.297Z,91.45
2023-03-20T06:59:42.110Z,93.93
2023-03-20T07:02:10.772Z,84.28
2023-03-20T07:04:37.864Z,89.05
2023-03-20T07:07:04.716Z,88.10
2023-03-20T07:09:31.190Z,82.70
2023-03-20T07:11:57.717Z,79.60
2023-03-20T07:14:24.147Z,75.90
2023-03-20T07:16:51.085Z,74.45
2023-03-20T07:19:18.835Z,72.75
2023-03-20T07:21:45.659Z,86.20
2023-03-20T07:24:12.740Z,79.05
2023-03-20T07:26:41.114Z,76.65
2023-03-20T07:29:07.909Z,72.70
2023-03-20T07:31:34.562Z,74.78
2023-03-20T07:34:01.267Z,71.25
2023-03-20T07:36:27.949Z,73.13
2023-03-20T07:38:54.418Z,73.65
2023-03-20T07:41:21.258Z,68.10
2023-03-20T07:43:47.863Z,78.00
2023-03-20T07:46:14.481Z,77.40
2023-03-20T07:48:41.147Z,81.75
2023-03-20T07:51:08.193Z,72.32
2023-03-20T07:53:34.914Z,70.47
2023-03-20T07:56:01.507Z,78.80
2023-03-20T07:58:28.210Z,73.55
2023-03-20T08:00:57.785Z,83.57
2023-03-20T08:03:24.935Z,69.03
2023-03-20T08:05:51.562Z,71.40
2023-03-20T08:08:18.255Z,68.82
2023-03-20T08:10:44.807Z,66.88
2023-03-20T08:13:11.392Z,58.25
2023-03-20T08:15:38.375Z,62.70
2023-03-20T08:18:05.178Z,61.42
2023-03-20T08:20:31.831Z,56.72
2023-03-20T08:22:58.320Z,60.88
2023-03-20T08:25:24.789Z,56.78
2023-03-20T08:27:51.263Z,57.70
2023-03-20T08:30:17.803Z,62.83
2023-03-20T08:32:44.374Z,55.30
2023-03-20T08:35:25.762Z,53.70
2023-03-20T08:37:56.644Z,56.60
2023-03-20T08:40:23.683Z,58.78
2023-03-20T08:42:50.315Z,64.93
2023-03-20T08:45:18.383Z,62.05
2023-03-20T08:47:48.865Z,52.78
2023-03-20T08:50:16.228Z,62.42
2023-03-20T08:52:44.194Z,59.90
2023-03-20T08:55:12.101Z,56.33
2023-03-20T08:57:39.040Z,55.75
2023-03-20T09:00:07.460Z,61.17
2023-03-20T09:02:34.750Z,55.28
2023-03-20T09:05:01.487Z,53.72
2023-03-20T09:07:28.245Z,60.90
2023-03-20T09:09:54.763Z,53.88
2023-03-20T09:12:21.730Z,54.10
2023-03-20T09:14:48.273Z,49.05
2023-03-20T09:17:14.841Z,53.95
2023-03-20T09:19:44.366Z,49.50
2023-03-20T09:22:14.282Z,44.45
2023-03-20T09:24:41.117Z,48.92
2023-03-20T09:27:07.632Z,47.30
2023-03-20T09:29:34.126Z,55.97
2023-03-20T09:32:01.227Z,51.13
2023-03-20T09:34:27.708Z,52.42
2023-03-20T09:36:54.273Z,50.45
2023-03-20T09:39:20.861Z,48.38
2023-03-20T09:41:57.087Z,61.85
2023-03-20T09:44:39.006Z,38.38
2023-03-20T09:50:09.670Z,39.05
2023-03-20T09:52:58.110Z,42.28
2023-03-20T09:55:32.850Z,39.55
2023-03-20T09:58:06.050Z,39.92
2023-03-20T10:00:36.192Z,40.92
2023-03-20T10:03:08.217Z,36.20
2023-03-20T10:05:45.602Z,39.70
2023-03-20T10:08:17.982Z,41.38
2023-03-20T10:11:06.621Z,40.00
2023-03-20T10:13:55.993Z,39.38
2023-03-20T10:16:47.881Z,35.42
2023-03-20T10:19:36.623Z,39.22
2023-03-20T10:22:29.159Z,37.67
2023-03-20T10:25:16.823Z,39.80
2023-03-20T10:27:49.429Z,41.25
2023-03-20T10:30:27.054Z,36.03
2023-03-20T10:32:56.653Z,37.05
2023-03-20T10:35:33.734Z,36.80
2023-03-20T10:38:18.275Z,30.92
2023-03-20T10:40:45.264Z,40.47
2023-03-20T10:43:19.750Z,37.63
2023-03-20T10:45:48.393Z,37.25
2023-03-20T10:48:23.626Z,34.90
2023-03-20T10:50:59.786Z,34.65
2023-03-20T10:53:41.905Z,31.27
2023-03-20T10:56:17.122Z,35.22
2023-03-20T10:58:48.085Z,34.63
2023-03-20T11:01:15.061Z,36.72
2023-03-20T11:03:41.643Z,29.27
2023-03-20T11:06:23.243Z,33.40
2023-03-20T11:08:52.532Z,32.95
2023-03-20T11:11:28.216Z,28.20
2023-03-20T11:13:55.524Z,30.10
2023-03-20T11:16:31.702Z,32.65
2023-03-20T11:19:06.313Z,30.63
2023-03-20T11:21:33.698Z,35.40
2023-03-20T11:24:01.643Z,28.77
2023-03-20T11:26:34.380Z,31.70
2023-03-20T11:29:01.064Z,30.73
2023-03-20T11:31:41.164Z,33.60
2023-03-20T11:34:07.565Z,29.30
2023-03-20T11:36:36.771Z,31.00
2023-03-20T11:39:15.463Z,28.38
2023-03-20T11:41:54.019Z,26.63
2023-03-20T11:44:33.038Z,32.47
2023-03-20T11:47:20.965Z,32.75
2023-03-20T11:50:00.293Z,32.45
2023-03-20T11:52:32.708Z,32.25
2023-03-20T11:55:03.459Z,29.15
2023-03-20T11:57:35.246Z,28.75
2023-03-20T12:00:24.336Z,39.25
2023-03-20T12:02:51.387Z,32.20
2023-03-20T12:05:37.303Z,31.13
2023-03-20T12:08:24.330Z,34.38
2023-03-20T12:10:59.400Z,32.42
2023-03-20T12:13:33.726Z,32.00
2023-03-20T12:16:07.970Z,28.05
2023-03-20T12:18:50.534Z,33.53
2023-03-20T12:21:27.025Z,30.40
2023-03-20T12:24:01.319Z,30.83
2023-03-20T12:26:36.180Z,32.00
2023-03-20T12:29:12.653Z,30.77
2023-03-20T12:32:02.466Z,30.55
2023-03-20T12:34:52.970Z,35.65
2023-03-20T12:37:19.906Z,32.53
2023-03-20T12:39:59.359Z,36.65
2023-03-20T12:42:42.912Z,61.35
2023-03-20T12:45:12.592Z,36.15
2023-03-20T12:48:04.633Z,35.33
2023-03-20T12:50:39.556Z,41.00
2023-03-20T12:53:20.416Z,40.65
2023-03-20T12:55:54.640Z,31.85
2023-03-20T12:58:24.115Z,32.63
2023-03-20T13:01:02.797Z,33.05
2023-03-20T13:03:38.304Z,39.42
2023-03-20T13:06:10.911Z,38.92
2023-03-20T13:09:00.627Z,33.78
2023-03-20T13:11:33.219Z,32.28
2023-03-20T13:14:11.385Z,33.00
2023-03-20T13:17:11.644Z,30.75
2023-03-20T13:19:55.020Z,36.25
2023-03-20T13:22:36.375Z,29.70
2023-03-20T13:27:43.500Z,35.75
2023-03-20T13:30:16.657Z,33.92
2023-03-20T13:32:59.775Z,33.03
2023-03-20T13:35:42.105Z,35.72
2023-03-20T13:38:22.230Z,37.97
2023-03-20T13:40:56.319Z,31.63
2023-03-20T13:43:35.269Z,34.47
2023-03-20T13:46:07.168Z,31.05
2023-03-20T13:48:42.581Z,29.35
2023-03-20T13:51:34.514Z,29.23
2023-03-20T13:54:16.367Z,31.55
2023-03-20T13:56:53.556Z,28.27
2023-03-20T13:59:58.548Z,28.35
2023-03-20T14:02:33.645Z,38.58
2023-03-20T14:05:11.397Z,30.25
2023-03-20T14:07:42.593Z,29.20
2023-03-20T14:13:20.771Z,29.70
2023-03-20T14:15:56.491Z,26.77
2023-03-20T14:18:28.527Z,29.05
2023-03-20T14:21:03.279Z,34.78
2023-03-20T14:23:35.088Z,31.38
2023-03-20T14:26:06.911Z,29.77
2023-03-20T14:28:44.619Z,30.67
2023-03-20T14:31:20.838Z,31.20
2023-03-20T14:33:58.751Z,34.13
2023-03-20T14:36:45.252Z,33.72
2023-03-20T14:39:27.045Z,31.00
2023-03-20T14:42:16.138Z,30.88
2023-03-20T14:44:48.542Z,29.33
2023-03-20T14:47:27.696Z,32.42
2023-03-20T14:50:03.505Z,31.67
2023-03-20T14:52:35.291Z,31.95
2023-03-20T14:55:20.010Z,29.15
2023-03-20T14:57:55.973Z,28.30
2023-03-20T15:00:26.557Z,32.45
2023-03-20T15:03:08.251Z,35.97
2023-03-20T15:05:37.994Z,31.65
2023-03-20T15:08:10.576Z,29.27
2023-03-20T15:10:47.068Z,35.20
2023-03-20T15:13:15.473Z,30.95
2023-03-20T15:15:54.045Z,28.20
2023-03-20T15:18:23.464Z,34.25
2023-03-20T15:20:50.425Z,30.33
2023-03-20T15:23:17.368Z,30.73
2023-03-20T15:25:49.611Z,32.55
2023-03-20T15:28:25.965Z,29.27
2023-03-20T15:30:57.945Z,29.55
2023-03-20T15:33:33.245Z,26.67
2023-03-20T15:36:19.005Z,31.45
2023-03-20T15:38:47.433Z,25.30
2023-03-20T15:41:34.204Z,33.45
2023-03-20T15:44:18.097Z,33.40
2023-03-20T15:47:00.755Z,27.42
2023-03-20T15:49:30.844Z,29.45
2023-03-20T15:52:01.709Z,30.52
2023-03-20T15:54:29.122Z,28.98
2023-03-20T15:56:58.363Z,29.83
2023-03-20T15:59:29.454Z,28.65
2023-03-20T16:04:26.541Z,34.35
2023-03-20T16:07:01.079Z,30.50
2023-03-20T16:09:28.882Z,34.70
2023-03-20T16:11:57.046Z,36.80
2023-03-20T16:14:26.434Z,31.05
2023-03-20T16:16:56.175Z,34.85
2023-03-20T16:19:25.027Z,39.92
2023-03-20T16:21:55.916Z,45.60
2023-03-20T16:24:28.960Z,33.53
2023-03-20T16:26:56.766Z,33.75
2023-03-20T16:29:25.528Z,36.10
2023-03-20T16:32:26.864Z,29.38
2023-03-20T16:34:57.303Z,31.10
2023-03-20T16:37:37.004Z,32.30
2023-03-20T16:40:19.937Z,30.98
2023-03-20T16:42:46.777Z,33.10
2023-03-20T16:45:21.799Z,32.28
2023-03-20T16:47:49.488Z,34.00
2023-03-20T16:50:17.939Z,33.30
2023-03-20T16:52:51.092Z,38.45
2023-03-20T16:55:22.780Z,33.45
2023-03-20T16:57:52.122Z,29.70
2023-03-20T17:00:25.933Z,34.08
2023-03-20T17:03:00.858Z,37.28
2023-03-20T17:05:42.484Z,28.90
2023-03-20T17:08:13.850Z,43.45
2023-03-20T17:10:44.026Z,38.10
2023-03-20T17:13:10.642Z,32.58
2023-03-20T17:15:37.243Z,33.10
2023-03-20T17:18:04.389Z,36.67
2023-03-20T17:20:31.966Z,38.97
2023-03-20T17:22:58.485Z,39.05
2023-03-20T17:25:25.054Z,41.10
2023-03-20T17:27:51.742Z,34.20
2023-03-20T17:30:23.835Z,37.78
2023-03-20T17:32:51.031Z,34.33
2023-03-20T17:35:17.834Z,39.72
2023-03-20T17:37:44.843Z,36.05
2023-03-20T17:40:17.965Z,41.58
2023-03-20T17:42:44.614Z,35.60
2023-03-20T17:45:14.181Z,42.05
2023-03-20T17:47:42.446Z,43.13
2023-03-20T17:50:27.421Z,37.25
2023-03-20T17:52:54.947Z,37.08
2023-03-20T17:55:21.710Z,38.55
2023-03-20T17:57:49.293Z,37.67
2023-03-20T18:00:22.065Z,39.97
2023-03-20T18:02:48.609Z,33.80
2023-03-20T18:05:15.399Z,38.80
2023-03-20T18:07:41.864Z,40.90
2023-03-20T18:10:20.824Z,35.15
2023-03-20T18:12:47.378Z,40.53
2023-03-20T18:15:13.836Z,39.13
2023-03-20T18:17:40.267Z,38.40
2023-03-20T18:20:22.808Z,42.55
2023-03-20T18:22:49.851Z,32.53
2023-03-20T18:25:16.473Z,40.67
2023-03-20T18:27:43.974Z,43.92
2023-03-20T18:30:16.508Z,39.92
2023-03-20T18:32:42.951Z,37.28
2023-03-20T18:35:09.622Z,42.08
2023-03-20T18:37:36.396Z,38.72
2023-03-20T18:40:03.476Z,34.38
2023-03-20T18:42:29.887Z,42.75
2023-03-20T18:44:56.484Z,46.78
2023-03-20T18:47:23.988Z,73.00
2023-03-20T18:49:50.546Z,64.93
2023-03-20T18:52:16.920Z,78.15
2023-03-20T18:54:43.380Z,59.15
2023-03-20T18:57:13.543Z,194.90
2023-03-20T18:59:40.167Z,214.35
2023-03-20T19:02:07.044Z,184.95
2023-03-20T19:04:35.142Z,126.85
2023-03-20T19:07:01.806Z,88.63
2023-03-20T19:09:28.259Z,65.55
2023-03-20T19:11:54.725Z,74.72
2023-03-20T19:14:21.266Z,70.15
2023-03-20T19:16:47.729Z,45.88
2023-03-20T19:19:15.859Z,43.50
2023-03-20T19:21:42.405Z,59.47
2023-03-20T19:24:08.934Z,63.20
2023-03-20T19:26:37.023Z,64.93
2023-03-20T19:29:08.717Z,68.57
2023-03-20T19:31:35.855Z,64.00
2023-03-20T19:34:02.336Z,66.68
2023-03-20T19:36:34.495Z,59.45
2023-03-20T19:39:03.860Z,68.90
2023-03-20T19:41:32.176Z,75.47
2023-03-20T19:43:59.237Z,58.60
2023-03-20T19:46:42.758Z,50.88
2023-03-20T19:49:20.631Z,52.20
2023-03-20T19:51:48.436Z,43.50
2023-03-20T19:54:15.119Z,48.63
2023-03-20T19:56:41.608Z,46.08
2023-03-20T19:59:08.425Z,48.97
2023-03-20T20:01:36.157Z,53.05
2023-03-20T20:04:02.676Z,49.95
2023-03-20T20:06:32.195Z,48.67
2023-03-20T20:09:00.926Z,49.63
2023-03-20T20:11:27.567Z,50.65
2023-03-20T20:14:10.537Z,49.20
2023-03-20T20:16:40.264Z,57.38
2023-03-20T20:19:07.307Z,50.10
2023-03-20T20:24:20.950Z,50.83
2023-03-20T20:26:55.307Z,41.97
2023-03-20T20:29:29.837Z,40.20
2023-03-20T20:31:56.450Z,46.60
2023-03-20T20:37:51.637Z,43.38
2023-03-20T20:39:57.435Z,48.97
2023-03-20T20:42:23.951Z,48.95
2023-03-20T20:44:50.679Z,52.60
2023-03-20T20:47:17.490Z,45.95
2023-03-20T20:49:46.306Z,50.40
2023-03-20T20:52:13.114Z,42.92
2023-03-20T20:54:42.009Z,48.17
2023-03-20T20:57:14.221Z,53.13
2023-03-20T20:59:41.087Z,52.90
2023-03-20T21:02:12.844Z,43.30
2023-03-20T21:04:40.949Z,46.97
2023-03-20T21:07:11.549Z,51.55
2023-03-20T21:09:38.943Z,54.35
2023-03-20T21:12:05.704Z,43.08
2023-03-20T21:14:32.209Z,51.22
2023-03-20T21:17:01.730Z,54.00
2023-03-20T21:19:30.807Z,46.78
2023-03-20T21:21:57.377Z,50.22
2023-03-20T21:24:34.005Z,55.42
2023-03-20T21:27:03.540Z,49.38
2023-03-20T21:29:30.176Z,59.40
2023-03-20T21:31:56.702Z,53.58
2023-03-20T21:34:23.327Z,60.33
2023-03-20T21:36:51.017Z,51.38
2023-03-20T21:39:18.578Z,61.28
2023-03-20T21:41:45.978Z,54.45
2023-03-20T21:44:17.634Z,65.00
2023-03-20T21:47:33.206Z,61.38
2023-03-20T21:56:00.012Z,54.58
2023-03-20T21:58:44.477Z,57.35
2023-03-20T22:01:29.085Z,48.08
2023-03-20T22:04:10.567Z,60.20
2023-03-20T22:10:00.310Z,56.70
2023-03-20T22:23:45.678Z,60.13
2023-03-20T22:29:14.719Z,54.83
2023-03-20T22:31:55.267Z,52.08
2023-03-20T22:40:22.630Z,43.65
2023-03-20T22:42:52.975Z,50.83
2023-03-20T22:45:13.644Z,53.67
2023-03-20T22:47:40.635Z,58.92
2023-03-20T22:50:07.798Z,58.58
2023-03-20T22:52:48.087Z,50.50
2023-03-20T22:55:16.513Z,53.47
2023-03-20T22:57:52.796Z,44.78
2023-03-20T23:00:22.790Z,43.97
2023-03-20T23:02:50.009Z,49.40
2023-03-20T23:05:16.814Z,51.53
2023-03-20T23:07:44.451Z,48.03
2023-03-20T23:10:13.186Z,52.08
2023-03-20T23:12:40.907Z,45.55
2023-03-20T23:15:09.030Z,51.08
2023-03-20T23:17:35.617Z,49.55
2023-03-20T23:20:11.280Z,51.97
2023-03-20T23:22:38.713Z,49.60
2023-03-20T23:25:18.292Z,58.20
2023-03-20T23:27:50.369Z,49.15
2023-03-20T23:30:17.529Z,43.35
2023-03-20T23:32:44.044Z,44.33
2023-03-20T23:35:10.759Z,48.03
2023-03-20T23:37:37.320Z,45.25
2023-03-20T23:40:04.519Z,42.58
2023-03-20T23:42:31.317Z,47.78
2023-03-20T23:45:04.495Z,50.08
2023-03-20T23:47:44.862Z,52.72
2023-03-20T23:50:20.674Z,47.10
2023-03-20T23:53:01.122Z,46.17
2023-03-20T23:55:35.504Z,50.88
2023-03-20T23:58:02.232Z,45.72
